Wetterdaten: Woche 14.10.13 - 20.10.13 (KW42)
Datum Zeit Temperatur Luftfeuchte Luftdruck Niederschlag Windrichtung Sonnenschein Solar Wind
14.10.2013 00:00 4,8 C 98 % 1019,2 hPa 0,0 l/m N 0,00 h 0 W/m 0,3 km/h (0 Bft)
14.10.2013 01:00 5,2 C 98 % 1019,1 hPa 0,0 l/m N 0,00 h 0 W/m 0,1 km/h (0 Bft)
14.10.2013 02:00 5,3 C 98 % 1018,9 hPa 0,0 l/m N 0,00 h 0 W/m 0,0 km/h (0 Bft)
14.10.2013 03:00 5,3 C 99 % 1018,6 hPa 0,0 l/m N 0,00 h 0 W/m 0,5 km/h (0 Bft)
14.10.2013 04:00 5,6 C 99 % 1018,4 hPa 0,0 l/m N 0,00 h 0 W/m 0,3 km/h (0 Bft)
14.10.2013 05:00 5,6 C 99 % 1018,2 hPa 0,0 l/m N 0,00 h 0 W/m 2,0 km/h (1 Bft)
14.10.2013 06:00 6,0 C 99 % 1018,2 hPa 0,0 l/m S 0,00 h 0 W/m 2,7 km/h (1 Bft)
14.10.2013 07:00 6,3 C 98 % 1018,2 hPa 0,0 l/m S 0,08 h 10 W/m 0,4 km/h (0 Bft)
14.10.2013 08:00 6,5 C 98 % 1018,9 hPa 0,0 l/m N 0,00 h 12 W/m 1,3 km/h (1 Bft)
14.10.2013 09:00 7,3 C 98 % 1019,1 hPa 0,2 l/m N 0,00 h 64 W/m 0,8 km/h (0 Bft)
14.10.2013 10:00 9,0 C 96 % 1019,1 hPa 0,0 l/m S 0,00 h 139 W/m 5,2 km/h (1 Bft)
14.10.2013 11:00 10,7 C 88 % 1019,0 hPa 0,0 l/m S-SW 0,08 h 178 W/m 6,1 km/h (2 Bft)
14.10.2013 12:00 12,2 C 84 % 1018,7 hPa 0,0 l/m S-SW 0,58 h 341 W/m 7,9 km/h (2 Bft)
14.10.2013 13:00 13,5 C 81 % 1017,9 hPa 0,0 l/m S-SW 0,67 h 349 W/m 7,5 km/h (2 Bft)
14.10.2013 14:00 14,8 C 77 % 1017,2 hPa 0,0 l/m S-SW 0,83 h 450 W/m 8,6 km/h (2 Bft)
14.10.2013 15:00 15,3 C 73 % 1016,8 hPa 0,0 l/m SW 0,67 h 311 W/m 11,1 km/h (2 Bft)
14.10.2013 16:00 14,4 C 79 % 1016,5 hPa 0,0 l/m SW 0,00 h 105 W/m 7,2 km/h (2 Bft)
14.10.2013 17:00 13,4 C 82 % 1016,3 hPa 0,0 l/m SW 0,00 h 34 W/m 2,7 km/h (1 Bft)
14.10.2013 18:00 11,8 C 90 % 1016,2 hPa 0,0 l/m N 0,00 h 12 W/m 0,1 km/h (0 Bft)
14.10.2013 19:00 10,3 C 95 % 1016,2 hPa 0,0 l/m N 0,00 h 0 W/m 0,0 km/h (0 Bft)
14.10.2013 20:00 9,4 C 96 % 1016,5 hPa 0,0 l/m SW 0,00 h 0 W/m 0,4 km/h (0 Bft)
14.10.2013 21:00 10,3 C 94 % 1016,3 hPa 0,0 l/m W-SW 0,00 h 0 W/m 3,5 km/h (1 Bft)
14.10.2013 22:00 9,9 C 95 % 1016,4 hPa 0,0 l/m SW 0,00 h 0 W/m 5,5 km/h (1 Bft)
14.10.2013 23:00 9,9 C 95 % 1016,1 hPa 0,0 l/m SW 0,00 h 0 W/m 4,3 km/h (1 Bft)
15.10.2013 00:00 9,3 C 97 % 1015,5 hPa 0,2 l/m SW 0,00 h 0 W/m 6,4 km/h (2 Bft)
15.10.2013 01:00 9,2 C 97 % 1015,1 hPa 0,0 l/m SW 0,00 h 0 W/m 4,9 km/h (1 Bft)
15.10.2013 02:00 8,4 C 98 % 1014,9 hPa 0,0 l/m SW 0,00 h 0 W/m 2,8 km/h (1 Bft)
15.10.2013 03:00 7,8 C 98 % 1014,4 hPa 0,0 l/m SW 0,00 h 0 W/m 2,4 km/h (1 Bft)
15.10.2013 04:00 8,1 C 99 % 1013,8 hPa 0,0 l/m SW 0,00 h 0 W/m 9,5 km/h (2 Bft)
15.10.2013 05:00 8,4 C 99 % 1013,4 hPa 0,2 l/m SW 0,00 h 0 W/m 10,9 km/h (2 Bft)
15.10.2013 06:00 8,5 C 99 % 1013,0 hPa 0,0 l/m SW 0,00 h 0 W/m 10,5 km/h (2 Bft)
15.10.2013 07:00 8,2 C 98 % 1012,7 hPa 0,0 l/m SW 0,00 h 7 W/m 7,3 km/h (2 Bft)
15.10.2013 08:00 8,8 C 99 % 1013,0 hPa 0,0 l/m SW 0,00 h 24 W/m 13,4 km/h (3 Bft)
15.10.2013 09:00 9,8 C 99 % 1013,0 hPa 0,2 l/m SW 0,00 h 40 W/m 15,3 km/h (3 Bft)
15.10.2013 10:00 10,5 C 99 % 1012,7 hPa 0,2 l/m SW 0,50 h 279 W/m 16,6 km/h (3 Bft)
15.10.2013 11:00 12,5 C 91 % 1012,3 hPa 0,0 l/m W 0,33 h 302 W/m 23,2 km/h (4 Bft)
15.10.2013 12:00 12,7 C 88 % 1011,7 hPa 0,0 l/m W-SW 0,00 h 123 W/m 19,3 km/h (3 Bft)
15.10.2013 13:00 13,4 C 84 % 1010,6 hPa 0,0 l/m W-SW 0,08 h 182 W/m 22,6 km/h (4 Bft)
15.10.2013 14:00 13,9 C 81 % 1009,7 hPa 0,0 l/m W-SW 0,00 h 156 W/m 19,6 km/h (3 Bft)
15.10.2013 15:00 14,2 C 78 % 1009,1 hPa 0,0 l/m W-SW 0,00 h 97 W/m 20,8 km/h (4 Bft)
15.10.2013 16:00 13,4 C 82 % 1008,5 hPa 0,0 l/m W-SW 0,00 h 25 W/m 17,3 km/h (3 Bft)
15.10.2013 17:00 12,8 C 87 % 1008,2 hPa 1,4 l/m W-SW 0,00 h 7 W/m 20,6 km/h (4 Bft)
15.10.2013 18:00 11,4 C 92 % 1008,0 hPa 1,0 l/m W-SW 0,00 h 6 W/m 19,8 km/h (4 Bft)
15.10.2013 19:00 11,1 C 94 % 1008,2 hPa 2,6 l/m W-SW 0,00 h 0 W/m 8,9 km/h (2 Bft)
15.10.2013 20:00 10,9 C 95 % 1008,0 hPa 2,8 l/m W-SW 0,00 h 0 W/m 5,2 km/h (1 Bft)
15.10.2013 21:00 10,4 C 96 % 1008,4 hPa 6,0 l/m W-SW 0,00 h 0 W/m 10,2 km/h (2 Bft)
15.10.2013 22:00 9,1 C 96 % 1008,8 hPa 3,6 l/m NW 0,00 h 0 W/m 8,0 km/h (2 Bft)
15.10.2013 23:00 8,4 C 96 % 1008,7 hPa 2,8 l/m NW 0,00 h 0 W/m 8,5 km/h (2 Bft)
16.10.2013 00:00 7,9 C 95 % 1008,1 hPa 3,0 l/m W-NW 0,00 h 0 W/m 4,7 km/h (1 Bft)
16.10.2013 01:00 7,5 C 96 % 1008,5 hPa 0,2 l/m W-NW 0,00 h 0 W/m 2,8 km/h (1 Bft)
16.10.2013 02:00 7,0 C 95 % 1009,3 hPa 0,0 l/m W-NW 0,00 h 0 W/m 2,3 km/h (1 Bft)
16.10.2013 03:00 6,3 C 95 % 1009,6 hPa 0,0 l/m W-NW 0,00 h 0 W/m 5,5 km/h (1 Bft)
16.10.2013 04:00 6,5 C 97 % 1010,2 hPa 0,0 l/m W-SW 0,00 h 0 W/m 10,7 km/h (2 Bft)
16.10.2013 05:00 6,7 C 97 % 1011,1 hPa 0,0 l/m W-SW 0,00 h 0 W/m 13,0 km/h (3 Bft)
16.10.2013 06:00 6,9 C 96 % 1011,7 hPa 0,0 l/m W-SW 0,00 h 0 W/m 13,0 km/h (3 Bft)
16.10.2013 07:00 6,9 C 95 % 1012,3 hPa 0,0 l/m W-SW 0,00 h 5 W/m 13,2 km/h (3 Bft)
16.10.2013 08:00 7,1 C 95 % 1012,9 hPa 0,0 l/m W-SW 0,00 h 22 W/m 16,2 km/h (3 Bft)
16.10.2013 09:00 7,6 C 94 % 1013,6 hPa 0,0 l/m W 0,00 h 71 W/m 16,8 km/h (3 Bft)
16.10.2013 10:00 8,5 C 91 % 1014,5 hPa 0,0 l/m W 0,00 h 123 W/m 14,8 km/h (3 Bft)
16.10.2013 11:00 9,5 C 84 % 1015,0 hPa 0,0 l/m W 0,17 h 247 W/m 16,6 km/h (3 Bft)
16.10.2013 12:00 10,9 C 74 % 1015,2 hPa 0,0 l/m W 0,75 h 516 W/m 18,0 km/h (3 Bft)
16.10.2013 13:00 11,5 C 68 % 1014,9 hPa 0,0 l/m W-NW 0,75 h 447 W/m 16,2 km/h (3 Bft)
16.10.2013 14:00 12,6 C 62 % 1014,5 hPa 0,0 l/m W-NW 1,00 h 512 W/m 14,6 km/h (3 Bft)
16.10.2013 15:00 12,4 C 63 % 1014,3 hPa 0,0 l/m W 0,33 h 212 W/m 11,2 km/h (2 Bft)
16.10.2013 16:00 12,3 C 67 % 1014,6 hPa 0,0 l/m W-SW 0,33 h 161 W/m 7,8 km/h (2 Bft)
16.10.2013 17:00 11,1 C 77 % 1014,5 hPa 0,0 l/m N 0,00 h 50 W/m 2,0 km/h (1 Bft)
16.10.2013 18:00 9,8 C 87 % 1014,4 hPa 0,0 l/m N 0,00 h 10 W/m 0,4 km/h (0 Bft)
16.10.2013 19:00 8,8 C 91 % 1014,4 hPa 0,0 l/m N 0,00 h 0 W/m 0,5 km/h (0 Bft)
16.10.2013 20:00 8,6 C 91 % 1015,3 hPa 0,0 l/m W-SW 0,00 h 0 W/m 2,8 km/h (1 Bft)
16.10.2013 21:00 8,2 C 94 % 1015,0 hPa 0,0 l/m W-SW 0,00 h 0 W/m 2,7 km/h (1 Bft)
16.10.2013 22:00 8,7 C 92 % 1014,8 hPa 0,0 l/m W-SW 0,00 h 0 W/m 4,4 km/h (1 Bft)
16.10.2013 23:00 8,5 C 93 % 1014,4 hPa 0,0 l/m N 0,00 h 0 W/m 1,2 km/h (1 Bft)
17.10.2013 00:00 8,3 C 95 % 1013,9 hPa 0,0 l/m W-SW 0,00 h 0 W/m 1,9 km/h (1 Bft)
17.10.2013 01:00 8,4 C 95 % 1013,6 hPa 0,0 l/m N 0,00 h 0 W/m 3,6 km/h (1 Bft)
17.10.2013 02:00 9,1 C 95 % 1013,6 hPa 0,2 l/m W-SW 0,00 h 0 W/m 12,1 km/h (2 Bft)
17.10.2013 03:00 10,0 C 96 % 1013,6 hPa 1,8 l/m W-SW 0,00 h 0 W/m 15,8 km/h (3 Bft)
17.10.2013 04:00 10,5 C 97 % 1014,3 hPa 0,0 l/m W 0,00 h 0 W/m 21,6 km/h (4 Bft)
17.10.2013 05:00 10,3 C 96 % 1016,1 hPa 0,0 l/m W-NW 0,00 h 0 W/m 20,4 km/h (4 Bft)
17.10.2013 06:00 9,6 C 92 % 1017,2 hPa 0,0 l/m W-SW 0,00 h 0 W/m 10,4 km/h (2 Bft)
17.10.2013 07:00 9,0 C 94 % 1017,6 hPa 0,0 l/m SW 0,00 h 6 W/m 10,6 km/h (2 Bft)
17.10.2013 08:00 9,1 C 96 % 1018,2 hPa 0,0 l/m SW 0,00 h 23 W/m 9,3 km/h (2 Bft)
17.10.2013 09:00 9,6 C 95 % 1018,7 hPa 0,0 l/m W-SW 1,00 h 196 W/m 14,8 km/h (3 Bft)
17.10.2013 10:00 11,1 C 90 % 1018,6 hPa 0,0 l/m W-SW 1,00 h 371 W/m 17,2 km/h (3 Bft)
17.10.2013 11:00 12,5 C 80 % 1018,4 hPa 0,0 l/m W-SW 1,00 h 507 W/m 21,1 km/h (4 Bft)
17.10.2013 12:00 13,0 C 76 % 1018,3 hPa 0,0 l/m W 0,58 h 435 W/m 20,6 km/h (4 Bft)
17.10.2013 13:00 13,5 C 73 % 1018,1 hPa 0,0 l/m W 0,75 h 495 W/m 19,3 km/h (3 Bft)
17.10.2013 14:00 14,1 C 69 % 1017,6 hPa 0,0 l/m W 0,25 h 244 W/m 17,4 km/h (3 Bft)
17.10.2013 15:00 14,0 C 68 % 1017,4 hPa 0,0 l/m W 0,25 h 217 W/m 15,8 km/h (3 Bft)
17.10.2013 16:00 14,0 C 70 % 1017,2 hPa 0,0 l/m W 0,67 h 250 W/m 13,6 km/h (3 Bft)
17.10.2013 17:00 13,6 C 70 % 1016,9 hPa 0,0 l/m W 0,42 h 101 W/m 12,5 km/h (3 Bft)
17.10.2013 18:00 12,1 C 76 % 1017,1 hPa 0,0 l/m W-SW 0,08 h 12 W/m 7,9 km/h (2 Bft)
17.10.2013 19:00 10,4 C 83 % 1017,4 hPa 0,0 l/m W-SW 0,00 h 0 W/m 6,1 km/h (2 Bft)
17.10.2013 20:00 10,0 C 85 % 1017,6 hPa 0,0 l/m W 0,00 h 0 W/m 7,9 km/h (2 Bft)
17.10.2013 21:00 9,6 C 87 % 1017,9 hPa 0,0 l/m W-SW 0,00 h 0 W/m 9,4 km/h (2 Bft)
17.10.2013 22:00 9,4 C 87 % 1018,1 hPa 0,0 l/m W-SW 0,00 h 0 W/m 8,7 km/h (2 Bft)
17.10.2013 23:00 8,6 C 88 % 1018,1 hPa 0,0 l/m W-SW 0,00 h 0 W/m 3,5 km/h (1 Bft)
18.10.2013 00:00 7,4 C 89 % 1018,4 hPa 0,0 l/m W-SW 0,00 h 0 W/m 1,2 km/h (1 Bft)
18.10.2013 01:00 6,5 C 92 % 1018,5 hPa 0,0 l/m N 0,00 h 0 W/m 0,9 km/h (0 Bft)
18.10.2013 02:00 5,9 C 93 % 1018,5 hPa 0,0 l/m N 0,00 h 0 W/m 1,6 km/h (1 Bft)
18.10.2013 03:00 5,7 C 95 % 1018,3 hPa 0,0 l/m W-SW 0,00 h 0 W/m 2,7 km/h (1 Bft)
18.10.2013 04:00 5,9 C 96 % 1018,4 hPa 0,0 l/m W-SW 0,00 h 0 W/m 3,9 km/h (1 Bft)
18.10.2013 05:00 7,0 C 97 % 1018,5 hPa 0,0 l/m N 0,00 h 0 W/m 2,5 km/h (1 Bft)
18.10.2013 06:00 7,1 C 97 % 1018,5 hPa 0,0 l/m N 0,00 h 0 W/m 0,5 km/h (0 Bft)
18.10.2013 07:00 6,8 C 97 % 1018,5 hPa 0,0 l/m W-SW 0,00 h 0 W/m 0,7 km/h (0 Bft)
18.10.2013 08:00 7,3 C 98 % 1018,9 hPa 0,0 l/m N 0,00 h 21 W/m 0,0 km/h (0 Bft)
18.10.2013 09:00 8,3 C 98 % 1019,0 hPa 0,0 l/m W-SW 0,33 h 153 W/m 2,9 km/h (1 Bft)
18.10.2013 10:00 10,3 C 92 % 1018,9 hPa 0,0 l/m W-SW 1,00 h 338 W/m 4,7 km/h (1 Bft)
18.10.2013 11:00 11,9 C 85 % 1018,7 hPa 0,0 l/m W-SW 1,00 h 454 W/m 4,0 km/h (1 Bft)
18.10.2013 12:00 13,5 C 78 % 1018,2 hPa 0,0 l/m O 0,83 h 436 W/m 8,0 km/h (2 Bft)
18.10.2013 13:00 14,6 C 72 % 1017,5 hPa 0,0 l/m O-NO 1,00 h 548 W/m 9,9 km/h (2 Bft)
18.10.2013 14:00 15,5 C 68 % 1016,9 hPa 0,0 l/m O-NO 0,92 h 509 W/m 12,1 km/h (2 Bft)
18.10.2013 15:00 16,0 C 66 % 1016,5 hPa 0,0 l/m O-NO 1,00 h 404 W/m 12,9 km/h (3 Bft)
18.10.2013 16:00 15,3 C 68 % 1016,2 hPa 0,0 l/m O-NO 0,67 h 203 W/m 14,1 km/h (3 Bft)
18.10.2013 17:00 14,2 C 75 % 1016,0 hPa 0,0 l/m O-NO 0,42 h 87 W/m 9,7 km/h (2 Bft)
18.10.2013 18:00 12,5 C 80 % 1015,9 hPa 0,0 l/m O 0,08 h 11 W/m 5,6 km/h (1 Bft)
18.10.2013 19:00 10,6 C 88 % 1016,4 hPa 0,0 l/m N 0,00 h 0 W/m 4,3 km/h (1 Bft)
18.10.2013 20:00 9,9 C 90 % 1016,5 hPa 0,0 l/m N 0,00 h 0 W/m 4,1 km/h (1 Bft)
18.10.2013 21:00 9,5 C 91 % 1016,3 hPa 0,0 l/m O 0,00 h 0 W/m 4,4 km/h (1 Bft)
18.10.2013 22:00 9,0 C 93 % 1016,3 hPa 0,0 l/m N 0,00 h 0 W/m 4,4 km/h (1 Bft)
18.10.2013 23:00 8,4 C 94 % 1016,2 hPa 0,0 l/m O-NO 0,00 h 0 W/m 6,3 km/h (2 Bft)
19.10.2013 00:00 7,9 C 95 % 1016,0 hPa 0,0 l/m NO 0,00 h 0 W/m 5,6 km/h (1 Bft)
19.10.2013 01:00 7,0 C 97 % 1015,9 hPa 0,0 l/m NO 0,00 h 0 W/m 4,3 km/h (1 Bft)
19.10.2013 02:00 6,8 C 98 % 1015,9 hPa 0,0 l/m NO 0,00 h 0 W/m 4,7 km/h (1 Bft)
19.10.2013 03:00 7,2 C 98 % 1015,8 hPa 0,0 l/m NO 0,00 h 0 W/m 3,3 km/h (1 Bft)
19.10.2013 04:00 7,2 C 98 % 1015,5 hPa 0,0 l/m N 0,00 h 0 W/m 1,2 km/h (1 Bft)
19.10.2013 05:00 7,1 C 98 % 1015,6 hPa 0,0 l/m N 0,00 h 0 W/m 1,2 km/h (1 Bft)
19.10.2013 06:00 6,8 C 98 % 1015,7 hPa 0,0 l/m N-NO 0,00 h 0 W/m 1,3 km/h (1 Bft)
19.10.2013 07:00 6,7 C 98 % 1015,7 hPa 0,0 l/m NO 0,00 h 5 W/m 1,3 km/h (1 Bft)
19.10.2013 08:00 6,7 C 98 % 1016,1 hPa 0,0 l/m S 0,00 h 25 W/m 5,5 km/h (1 Bft)
19.10.2013 09:00 7,0 C 99 % 1016,4 hPa 0,0 l/m S-SW 0,00 h 74 W/m 7,1 km/h (2 Bft)
19.10.2013 10:00 7,8 C 99 % 1016,5 hPa 0,0 l/m S-SW 0,00 h 119 W/m 5,6 km/h (1 Bft)
19.10.2013 11:00 9,4 C 98 % 1016,4 hPa 0,0 l/m S-SW 0,83 h 386 W/m 3,7 km/h (1 Bft)
19.10.2013 12:00 13,0 C 85 % 1015,8 hPa 0,0 l/m S-SW 1,00 h 441 W/m 6,8 km/h (2 Bft)
19.10.2013 13:00 15,7 C 75 % 1015,1 hPa 0,0 l/m S-SW 1,00 h 536 W/m 11,2 km/h (2 Bft)
19.10.2013 14:00 17,5 C 68 % 1014,6 hPa 0,0 l/m S-SW 1,00 h 496 W/m 10,9 km/h (2 Bft)
19.10.2013 15:00 18,4 C 67 % 1014,3 hPa 0,0 l/m S-SW 1,00 h 409 W/m 10,8 km/h (2 Bft)
19.10.2013 16:00 18,1 C 69 % 1014,0 hPa 0,0 l/m S-SW 1,00 h 273 W/m 12,5 km/h (3 Bft)
19.10.2013 17:00 16,4 C 75 % 1014,0 hPa 0,0 l/m SW 0,50 h 74 W/m 9,8 km/h (2 Bft)
19.10.2013 18:00 14,1 C 81 % 1014,4 hPa 0,0 l/m SW 0,00 h 9 W/m 2,7 km/h (1 Bft)
19.10.2013 19:00 11,5 C 90 % 1015,1 hPa 0,0 l/m N 0,00 h 0 W/m 0,4 km/h (0 Bft)
19.10.2013 20:00 10,6 C 93 % 1015,6 hPa 0,0 l/m N 0,00 h 0 W/m 0,5 km/h (0 Bft)
19.10.2013 21:00 10,6 C 94 % 1016,1 hPa 0,0 l/m N 0,00 h 0 W/m 1,2 km/h (1 Bft)
19.10.2013 22:00 11,0 C 94 % 1016,4 hPa 0,0 l/m S-SW 0,00 h 0 W/m 2,9 km/h (1 Bft)
19.10.2013 23:00 10,8 C 94 % 1016,8 hPa 0,0 l/m N 0,00 h 0 W/m 0,4 km/h (0 Bft)
20.10.2013 00:00 11,1 C 93 % 1016,6 hPa 0,0 l/m S-SW 0,00 h 0 W/m 2,1 km/h (1 Bft)
20.10.2013 01:00 11,6 C 90 % 1016,6 hPa 0,0 l/m SW 0,00 h 0 W/m 2,1 km/h (1 Bft)
20.10.2013 02:00 13,1 C 83 % 1016,6 hPa 0,0 l/m SW 0,00 h 0 W/m 6,4 km/h (2 Bft)
20.10.2013 03:00 10,9 C 90 % 1016,5 hPa 0,0 l/m N 0,00 h 0 W/m 1,9 km/h (1 Bft)
20.10.2013 04:00 9,9 C 94 % 1016,5 hPa 0,0 l/m N 0,00 h 0 W/m 0,4 km/h (0 Bft)
20.10.2013 05:00 10,1 C 94 % 1016,5 hPa 0,0 l/m N 0,00 h 0 W/m 0,0 km/h (0 Bft)
20.10.2013 06:00 10,1 C 95 % 1016,0 hPa 0,0 l/m N 0,00 h 0 W/m 0,0 km/h (0 Bft)
20.10.2013 07:00 10,1 C 95 % 1016,0 hPa 0,0 l/m N 0,00 h 0 W/m 0,0 km/h (0 Bft)
20.10.2013 08:00 10,4 C 95 % 1015,9 hPa 0,0 l/m S-SW 0,00 h 27 W/m 2,0 km/h (1 Bft)
20.10.2013 09:00 11,0 C 95 % 1016,3 hPa 0,0 l/m N 0,17 h 108 W/m 0,3 km/h (0 Bft)
20.10.2013 10:00 13,4 C 85 % 1016,1 hPa 0,0 l/m S-SW 1,00 h 295 W/m 3,3 km/h (1 Bft)
20.10.2013 11:00 16,3 C 70 % 1015,9 hPa 0,0 l/m S-SW 0,50 h 260 W/m 6,5 km/h (2 Bft)
20.10.2013 12:00 17,0 C 69 % 1016,5 hPa 0,0 l/m W-SW 0,00 h 113 W/m 7,4 km/h (2 Bft)
20.10.2013 13:00 16,2 C 79 % 1016,5 hPa 0,0 l/m NW 0,00 h 105 W/m 8,6 km/h (2 Bft)
20.10.2013 14:00 15,8 C 81 % 1016,7 hPa 0,0 l/m W-SW 0,00 h 50 W/m 14,1 km/h (3 Bft)
20.10.2013 15:00 15,8 C 78 % 1016,6 hPa 0,0 l/m W 0,00 h 45 W/m 20,9 km/h (4 Bft)
20.10.2013 16:00 15,2 C 82 % 1016,4 hPa 0,0 l/m W-SW 0,00 h 36 W/m 19,4 km/h (3 Bft)
20.10.2013 17:00 14,8 C 83 % 1016,8 hPa 0,0 l/m W-SW 0,00 h 24 W/m 22,4 km/h (4 Bft)
20.10.2013 18:00 14,2 C 87 % 1016,9 hPa 0,0 l/m SW 0,00 h 5 W/m 13,3 km/h (3 Bft)
20.10.2013 19:00 13,2 C 91 % 1017,0 hPa 0,0 l/m SW 0,00 h 0 W/m 4,3 km/h (1 Bft)
20.10.2013 20:00 12,3 C 93 % 1017,0 hPa 0,0 l/m SW 0,00 h 0 W/m 6,3 km/h (2 Bft)
20.10.2013 21:00 11,9 C 95 % 1017,1 hPa 0,2 l/m SW 0,00 h 0 W/m 6,4 km/h (2 Bft)
20.10.2013 22:00 11,4 C 96 % 1017,6 hPa 0,0 l/m SW 0,00 h 0 W/m 5,9 km/h (2 Bft)
20.10.2013 23:00 11,4 C 97 % 1017,9 hPa 0,0 l/m SW 0,00 h 0 W/m 1,2 km/h (1 Bft)
Min-Datum _ 14.10.13 16.10.13 15.10.13 - - - - 14.10.13
_ Min-Zeit 00:40 14:35 20:35 - - - - 00:00
Minimum _ 4,6 C 60 % 1007,8 hPa - - - - 0,0 km/h (0 Bft)
Max-Datum _ 19.10.13 17.10.13 14.10.13 15.10.13 - 14.10.13 16.10.13 15.10.13
_ Max-Zeit 15:30 08:00 00:00 21:45 - 07:50 12:30 11:30
Maximum _ 18,8 C 100 % 1019,3 hPa 6,0 l/m - 0,08 h 721 W/m 35,4 km/h
W-SW (5 Bft)
Durchschnitt _ 10,4 C 89 % 1015,5 hPa #26,6 l/m W-SW #28:25 h 190 W/m 7,7 km/h (2 Bft)